createdAt,value
2022-12-25T00:00:52.044Z,1011.45
2022-12-25T00:01:52.026Z,1011.45
2022-12-25T00:02:52.128Z,1011.49
2022-12-25T00:03:52.283Z,1011.46
2022-12-25T00:04:52.105Z,1011.41
2022-12-25T00:05:52.382Z,1011.38
2022-12-25T00:06:52.168Z,1011.47
2022-12-25T00:07:52.204Z,1011.41
2022-12-25T00:08:52.216Z,1011.39
2022-12-25T00:09:52.281Z,1011.37
2022-12-25T00:10:52.258Z,1011.37
2022-12-25T00:11:52.307Z,1011.37
2022-12-25T00:12:52.570Z,1011.37
2022-12-25T00:13:52.390Z,1011.30
2022-12-25T00:14:52.440Z,1011.34
2022-12-25T00:15:52.450Z,1011.35
2022-12-25T00:16:52.418Z,1011.36
2022-12-25T00:17:52.439Z,1011.37
2022-12-25T00:18:52.462Z,1011.35
2022-12-25T00:19:52.791Z,1011.33
2022-12-25T00:20:52.520Z,1011.30
2022-12-25T00:21:52.545Z,1011.32
2022-12-25T00:22:52.570Z,1011.29
2022-12-25T00:23:52.619Z,1011.33
2022-12-25T00:24:52.639Z,1011.29
2022-12-25T00:25:52.646Z,1011.30
2022-12-25T00:26:52.927Z,1011.30
2022-12-25T00:28:52.731Z,1011.32
2022-12-25T00:29:52.751Z,1011.29
2022-12-25T00:30:52.796Z,1011.28
2022-12-25T00:31:52.914Z,1011.28
2022-12-25T00:32:52.825Z,1011.27
2022-12-25T00:33:53.108Z,1011.28
2022-12-25T00:34:52.875Z,1011.31
2022-12-25T00:35:52.900Z,1011.33
2022-12-25T00:36:52.933Z,1011.32
2022-12-25T00:37:52.962Z,1011.32
2022-12-25T00:38:52.993Z,1011.29
2022-12-25T00:39:53.026Z,1011.31
2022-12-25T00:40:53.338Z,1011.35
2022-12-25T00:41:53.063Z,1011.32
2022-12-25T00:42:53.083Z,1011.37
2022-12-25T00:43:53.116Z,1011.36
2022-12-25T00:44:53.148Z,1011.37
2022-12-25T00:45:53.221Z,1011.33
2022-12-25T00:46:53.229Z,1011.37
2022-12-25T00:47:53.529Z,1011.36
2022-12-25T00:48:53.245Z,1011.37
2022-12-25T00:49:53.272Z,1011.38
2022-12-25T00:50:53.293Z,1011.38
2022-12-25T00:51:53.322Z,1011.36
2022-12-25T00:52:53.353Z,1011.41
2022-12-25T00:53:53.369Z,1011.39
2022-12-25T00:54:53.675Z,1011.41
2022-12-25T00:55:53.447Z,1011.46
2022-12-25T00:56:53.450Z,1011.48
2022-12-25T00:57:53.472Z,1011.48
2022-12-25T00:58:53.504Z,1011.43
2022-12-25T00:59:53.533Z,1011.45
2022-12-25T01:00:53.589Z,1011.42
2022-12-25T01:01:54.025Z,1011.41
2022-12-25T01:02:53.813Z,1011.44
2022-12-25T01:03:53.637Z,1011.46
2022-12-25T01:04:53.657Z,1011.46
2022-12-25T01:05:53.691Z,1011.47
2022-12-25T01:06:53.711Z,1011.47
2022-12-25T01:07:53.737Z,1011.46
2022-12-25T01:08:54.016Z,1011.47
2022-12-25T01:09:53.786Z,1011.49
2022-12-25T01:10:53.811Z,1011.50
2022-12-25T01:11:53.857Z,1011.46
2022-12-25T01:12:53.871Z,1011.48
2022-12-25T01:13:53.890Z,1011.46
2022-12-25T01:14:53.917Z,1011.45
2022-12-25T01:15:54.224Z,1011.41
2022-12-25T01:16:54.107Z,1011.46
2022-12-25T01:17:53.992Z,1011.47
2022-12-25T01:18:54.018Z,1011.46
2022-12-25T01:19:54.054Z,1011.48
2022-12-25T01:20:54.075Z,1011.46
2022-12-25T01:21:54.095Z,1011.43
2022-12-25T01:22:54.482Z,1011.48
2022-12-25T01:23:54.152Z,1011.50
2022-12-25T01:24:54.185Z,1011.47
2022-12-25T01:25:54.197Z,1011.48
2022-12-25T01:26:54.230Z,1011.47
2022-12-25T01:27:54.270Z,1011.47
2022-12-25T01:28:54.528Z,1011.48
2022-12-25T01:29:54.300Z,1011.45
2022-12-25T01:30:54.329Z,1011.45
2022-12-25T01:31:54.472Z,1011.40
2022-12-25T01:32:54.477Z,1011.42
2022-12-25T01:33:54.407Z,1011.40
2022-12-25T01:34:56.307Z,1011.41
2022-12-25T01:35:54.459Z,1011.39
2022-12-25T01:36:54.479Z,1011.42
2022-12-25T01:37:54.508Z,1011.42
2022-12-25T01:39:54.564Z,1011.45
2022-12-25T01:40:54.848Z,1011.39
2022-12-25T01:41:54.613Z,1011.37
2022-12-25T01:42:54.635Z,1011.37
2022-12-25T01:43:54.686Z,1011.40
2022-12-25T01:44:54.825Z,1011.38
2022-12-25T01:45:54.826Z,1011.35
2022-12-25T01:46:54.734Z,1011.35
2022-12-25T01:47:55.079Z,1011.36
2022-12-25T01:48:54.793Z,1011.37
2022-12-25T01:49:54.819Z,1011.36
2022-12-25T01:50:54.854Z,1011.33
2022-12-25T01:51:54.883Z,1011.38
2022-12-25T01:52:54.899Z,1011.39
2022-12-25T01:53:54.924Z,1011.40
2022-12-25T01:54:55.199Z,1011.39
2022-12-25T01:55:54.972Z,1011.42
2022-12-25T01:56:54.997Z,1011.39
2022-12-25T01:57:55.029Z,1011.44
2022-12-25T01:58:55.056Z,1011.46
2022-12-25T01:59:55.103Z,1011.49
2022-12-25T02:00:55.165Z,1011.49
2022-12-25T02:01:55.654Z,1011.49
2022-12-25T02:02:55.290Z,1011.48
2022-12-25T02:03:55.178Z,1011.45
2022-12-25T02:04:55.212Z,1011.49
2022-12-25T02:05:55.231Z,1011.49
2022-12-25T02:06:55.262Z,1011.51
2022-12-25T02:07:55.296Z,1011.45
2022-12-25T02:08:55.612Z,1011.46
2022-12-25T02:09:55.341Z,1011.49
2022-12-25T02:10:55.363Z,1011.49
2022-12-25T02:11:55.392Z,1011.50
2022-12-25T02:12:55.411Z,1011.50
2022-12-25T02:13:55.487Z,1011.51
2022-12-25T02:15:01.157Z,1011.54
2022-12-25T02:15:55.824Z,1011.54
2022-12-25T02:16:58.266Z,1011.56
2022-12-25T02:17:55.538Z,1011.58
2022-12-25T02:18:55.566Z,1011.60
2022-12-25T02:19:55.596Z,1011.59
2022-12-25T02:20:55.625Z,1011.58
2022-12-25T02:21:55.667Z,1011.62
2022-12-25T02:22:55.979Z,1011.55
2022-12-25T02:23:55.699Z,1011.55
2022-12-25T02:24:55.721Z,1011.57
2022-12-25T02:25:55.752Z,1011.56
2022-12-25T02:26:55.784Z,1011.51
2022-12-25T02:27:55.800Z,1011.50
2022-12-25T02:28:55.826Z,1011.52
2022-12-25T02:29:56.157Z,1011.50
2022-12-25T02:30:55.894Z,1011.49
2022-12-25T02:31:55.983Z,1011.47
2022-12-25T02:32:55.928Z,1011.45
2022-12-25T02:33:55.960Z,1011.45
2022-12-25T02:34:55.987Z,1011.51
2022-12-25T02:35:56.012Z,1011.56
2022-12-25T02:36:56.293Z,1011.54
2022-12-25T02:37:56.059Z,1011.54
2022-12-25T02:38:56.086Z,1011.53
2022-12-25T02:39:56.121Z,1011.54
2022-12-25T02:40:56.147Z,1011.55
2022-12-25T02:41:56.172Z,1011.50
2022-12-25T02:42:56.210Z,1011.54
2022-12-25T02:43:56.467Z,1011.53
2022-12-25T02:44:56.254Z,1011.58
2022-12-25T02:45:56.326Z,1011.59
2022-12-25T02:46:56.301Z,1011.57
2022-12-25T02:47:56.341Z,1011.59
2022-12-25T02:48:56.368Z,1011.58
2022-12-25T02:49:56.410Z,1011.55
2022-12-25T02:50:56.661Z,1011.52
2022-12-25T02:51:56.429Z,1011.49
2022-12-25T02:52:56.446Z,1011.50
2022-12-25T02:53:56.478Z,1011.49
2022-12-25T02:54:56.500Z,1011.49
2022-12-25T02:55:56.531Z,1011.51
2022-12-25T02:56:56.565Z,1011.52
2022-12-25T02:57:56.881Z,1011.52
2022-12-25T02:58:56.607Z,1011.51
2022-12-25T02:59:56.640Z,1011.53
2022-12-25T03:00:56.726Z,1011.56
2022-12-25T03:01:56.783Z,1011.51
2022-12-25T03:02:56.755Z,1011.54
2022-12-25T03:03:56.759Z,1011.53
2022-12-25T03:04:57.010Z,1011.52
2022-12-25T03:05:56.794Z,1011.50
2022-12-25T03:06:56.815Z,1011.46
2022-12-25T03:07:56.841Z,1011.45
2022-12-25T03:08:56.861Z,1011.43
2022-12-25T03:09:56.944Z,1011.43
2022-12-25T03:10:56.913Z,1011.41
2022-12-25T03:11:56.944Z,1011.40
2022-12-25T03:12:56.968Z,1011.39
2022-12-25T03:13:57.002Z,1011.34
2022-12-25T03:14:57.017Z,1011.33
2022-12-25T03:15:57.043Z,1011.33
2022-12-25T03:16:57.165Z,1011.36
2022-12-25T03:17:57.346Z,1011.34
2022-12-25T03:18:57.123Z,1011.38
2022-12-25T03:19:57.204Z,1011.39
2022-12-25T03:20:57.172Z,1011.42
2022-12-25T03:21:57.201Z,1011.41
2022-12-25T03:22:57.272Z,1011.43
2022-12-25T03:23:57.590Z,1011.48
2022-12-25T03:24:57.284Z,1011.38
2022-12-25T03:25:57.303Z,1011.37
2022-12-25T03:26:57.445Z,1011.29
2022-12-25T03:27:57.360Z,1011.30
2022-12-25T03:28:57.388Z,1011.29
2022-12-25T03:29:57.709Z,1011.29
2022-12-25T03:30:57.524Z,1011.26
2022-12-25T03:31:57.458Z,1011.25
2022-12-25T03:32:57.525Z,1011.21
2022-12-25T03:33:57.512Z,1011.21
2022-12-25T03:34:57.572Z,1011.19
2022-12-25T03:35:57.594Z,1011.16
2022-12-25T03:36:57.840Z,1011.18
2022-12-25T03:37:57.641Z,1011.15
2022-12-25T03:38:57.655Z,1011.12
2022-12-25T03:39:57.664Z,1011.09
2022-12-25T03:40:57.697Z,1011.10
2022-12-25T03:41:57.723Z,1011.11
2022-12-25T03:42:57.746Z,1011.14
2022-12-25T03:43:58.023Z,1011.17
2022-12-25T03:44:57.797Z,1011.16
2022-12-25T03:45:57.909Z,1011.11
2022-12-25T03:46:57.849Z,1011.06
2022-12-25T03:48:57.935Z,1011.04
2022-12-25T03:49:57.949Z,1011.01
2022-12-25T03:50:58.210Z,1011.01
2022-12-25T03:51:58.000Z,1011.00
2022-12-25T03:52:58.006Z,1010.99
2022-12-25T03:53:58.035Z,1010.92
2022-12-25T03:54:58.079Z,1010.82
2022-12-25T03:55:58.083Z,1010.83
2022-12-25T03:56:58.116Z,1010.77
2022-12-25T03:57:58.434Z,1010.77
2022-12-25T03:58:58.159Z,1010.73
2022-12-25T03:59:58.208Z,1010.67
2022-12-25T04:00:58.228Z,1010.63
2022-12-25T04:01:58.417Z,1010.56
2022-12-25T04:02:58.357Z,1010.58
2022-12-25T04:03:58.320Z,1010.57
2022-12-25T04:04:58.614Z,1010.64
2022-12-25T04:05:58.349Z,1010.65
2022-12-25T04:06:58.372Z,1010.70
2022-12-25T04:07:58.425Z,1010.73
2022-12-25T04:08:58.425Z,1010.75
2022-12-25T04:09:58.450Z,1010.78
2022-12-25T04:10:58.479Z,1010.81
2022-12-25T04:12:02.499Z,1010.85
2022-12-25T04:12:58.527Z,1010.83
2022-12-25T04:13:58.573Z,1010.89
2022-12-25T04:14:58.578Z,1010.87
2022-12-25T04:15:58.685Z,1010.89
2022-12-25T04:16:58.632Z,1010.90
2022-12-25T04:17:58.657Z,1010.87
2022-12-25T04:18:59.003Z,1010.90
2022-12-25T04:19:58.719Z,1010.88
2022-12-25T04:20:58.737Z,1010.94
2022-12-25T04:21:58.760Z,1010.94
2022-12-25T04:22:58.785Z,1010.99
2022-12-25T04:23:58.887Z,1010.98
2022-12-25T04:24:58.840Z,1010.99
2022-12-25T04:25:59.170Z,1010.99
2022-12-25T04:26:58.890Z,1011.00
2022-12-25T04:27:58.918Z,1010.99
2022-12-25T04:29:58.978Z,1011.02
2022-12-25T04:30:59.089Z,1010.98
2022-12-25T04:31:59.028Z,1010.98
2022-12-25T04:32:59.315Z,1010.94
2022-12-25T04:33:59.072Z,1010.97
2022-12-25T04:34:59.141Z,1010.90
2022-12-25T04:35:59.128Z,1010.90
2022-12-25T04:36:59.159Z,1010.91
2022-12-25T04:37:59.186Z,1010.91
2022-12-25T04:38:59.221Z,1010.90
2022-12-25T04:39:59.553Z,1010.93
2022-12-25T04:40:59.257Z,1010.89
2022-12-25T04:41:59.279Z,1010.92
2022-12-25T04:42:59.330Z,1010.91
2022-12-25T04:43:59.348Z,1010.87
2022-12-25T04:44:59.366Z,1010.87
2022-12-25T04:45:59.462Z,1010.86
2022-12-25T04:46:59.720Z,1010.84
2022-12-25T04:47:59.437Z,1010.83
2022-12-25T04:48:59.464Z,1010.84
2022-12-25T04:49:59.492Z,1010.86
2022-12-25T04:51:59.552Z,1010.83
2022-12-25T04:52:59.621Z,1010.81
2022-12-25T04:53:59.846Z,1010.77
2022-12-25T04:54:59.646Z,1010.74
2022-12-25T04:55:59.671Z,1010.76
2022-12-25T04:56:59.673Z,1010.76
2022-12-25T04:57:59.711Z,1010.75
2022-12-25T04:58:59.726Z,1010.73
2022-12-25T04:59:59.754Z,1010.78
2022-12-25T05:01:00.108Z,1010.77
2022-12-25T05:01:59.944Z,1010.73
2022-12-25T05:03:00.088Z,1010.74
2022-12-25T05:03:59.912Z,1010.75
2022-12-25T05:04:59.886Z,1010.79
2022-12-25T05:05:59.907Z,1010.77
2022-12-25T05:06:59.945Z,1010.78
2022-12-25T05:08:00.271Z,1010.82
2022-12-25T05:08:59.986Z,1010.81
2022-12-25T05:10:00.013Z,1010.82
2022-12-25T05:11:00.041Z,1010.84
2022-12-25T05:12:00.114Z,1010.79
2022-12-25T05:13:00.119Z,1010.72
2022-12-25T05:14:00.137Z,1010.67
2022-12-25T05:15:00.396Z,1010.66
2022-12-25T05:16:00.234Z,1010.66
2022-12-25T05:17:00.191Z,1010.62
2022-12-25T05:18:00.249Z,1010.62
2022-12-25T05:19:00.248Z,1010.56
2022-12-25T05:20:00.272Z,1010.55
2022-12-25T05:21:00.296Z,1010.54
2022-12-25T05:22:00.625Z,1010.53
2022-12-25T05:23:00.347Z,1010.50
2022-12-25T05:24:00.375Z,1010.45
2022-12-25T05:25:00.411Z,1010.40
2022-12-25T05:26:00.448Z,1010.39
2022-12-25T05:27:00.458Z,1010.37
2022-12-25T05:28:00.825Z,1010.34
2022-12-25T05:29:00.520Z,1010.35
2022-12-25T05:30:00.553Z,1010.37
2022-12-25T05:31:00.676Z,1010.35
2022-12-25T05:32:00.585Z,1010.34
2022-12-25T05:33:00.608Z,1010.28
2022-12-25T05:34:00.892Z,1010.25
2022-12-25T05:35:00.670Z,1010.25
2022-12-25T05:37:00.714Z,1010.24
2022-12-25T05:38:00.746Z,1010.27
2022-12-25T05:39:00.770Z,1010.28
2022-12-25T05:40:01.101Z,1010.29
2022-12-25T05:41:00.856Z,1010.35
2022-12-25T05:42:00.847Z,1010.32
2022-12-25T05:43:00.880Z,1010.36
2022-12-25T05:44:00.933Z,1010.37
2022-12-25T05:46:01.203Z,1010.34
2022-12-25T05:47:01.113Z,1010.36
2022-12-25T05:48:01.014Z,1010.35
2022-12-25T05:49:01.029Z,1010.36
2022-12-25T05:50:01.079Z,1010.38
2022-12-25T05:51:01.088Z,1010.36
2022-12-25T05:52:01.115Z,1010.31
2022-12-25T05:53:07.741Z,1010.31
2022-12-25T05:54:01.172Z,1010.29
2022-12-25T05:55:01.191Z,1010.29
2022-12-25T05:56:01.210Z,1010.26
2022-12-25T05:57:01.253Z,1010.30
2022-12-25T05:58:01.275Z,1010.28
2022-12-25T05:59:01.296Z,1010.28
2022-12-25T06:00:01.648Z,1010.30
2022-12-25T06:01:01.347Z,1010.26
2022-12-25T06:02:01.528Z,1010.27
2022-12-25T06:03:01.587Z,1010.17
2022-12-25T06:05:01.446Z,1010.11
2022-12-25T06:06:01.565Z,1010.12
2022-12-25T06:07:01.806Z,1010.12
2022-12-25T06:08:01.524Z,1010.09
2022-12-25T06:09:01.559Z,1010.09
2022-12-25T06:10:01.573Z,1010.08
2022-12-25T06:11:01.649Z,1010.05
2022-12-25T06:12:01.633Z,1010.08
2022-12-25T06:13:01.648Z,1010.03
2022-12-25T06:14:02.000Z,1010.03
2022-12-25T06:15:01.699Z,1010.07
2022-12-25T06:16:01.819Z,1010.09
2022-12-25T06:17:01.823Z,1010.14
2022-12-25T06:18:01.866Z,1010.20
2022-12-25T06:19:01.859Z,1010.18
2022-12-25T06:21:02.161Z,1010.16
2022-12-25T06:22:01.887Z,1010.13
2022-12-25T06:23:01.938Z,1010.09
2022-12-25T06:24:02.016Z,1010.08
2022-12-25T06:25:01.961Z,1010.08
2022-12-25T06:26:01.996Z,1010.01
2022-12-25T06:27:02.016Z,1010.01
2022-12-25T06:28:02.288Z,1009.99
2022-12-25T06:29:02.060Z,1009.94
2022-12-25T06:30:02.088Z,1009.93
2022-12-25T06:31:02.116Z,1009.94
2022-12-25T06:32:02.247Z,1009.92
2022-12-25T06:33:02.169Z,1009.88
2022-12-25T06:34:02.216Z,1009.87
2022-12-25T06:35:02.520Z,1009.83
2022-12-25T06:36:02.257Z,1009.81
2022-12-25T06:37:02.272Z,1009.77
2022-12-25T06:38:02.306Z,1009.74
2022-12-25T06:39:02.338Z,1009.69
2022-12-25T06:40:02.352Z,1009.72
2022-12-25T06:41:02.378Z,1009.61
2022-12-25T06:42:02.710Z,1009.54
2022-12-25T06:43:02.423Z,1009.47
2022-12-25T06:44:02.480Z,1009.36
2022-12-25T06:45:02.482Z,1009.35
2022-12-25T06:46:02.621Z,1009.37
2022-12-25T06:47:02.530Z,1009.42
2022-12-25T06:48:02.585Z,1009.48
2022-12-25T06:49:02.897Z,1009.51
2022-12-25T06:50:02.621Z,1009.55
2022-12-25T06:51:02.634Z,1009.64
2022-12-25T06:52:02.663Z,1009.64
2022-12-25T06:53:02.685Z,1009.61
2022-12-25T06:55:03.046Z,1009.60
2022-12-25T06:56:02.762Z,1009.62
2022-12-25T06:57:02.796Z,1009.61
2022-12-25T06:58:02.821Z,1009.61
2022-12-25T06:59:02.844Z,1009.58
2022-12-25T07:00:02.869Z,1009.60
2022-12-25T07:01:03.283Z,1009.60
2022-12-25T07:02:03.202Z,1009.60
2022-12-25T07:03:03.054Z,1009.52
2022-12-25T07:04:03.018Z,1009.43
2022-12-25T07:05:03.031Z,1009.34
2022-12-25T07:06:03.023Z,1009.40
2022-12-25T07:07:08.702Z,1009.28
2022-12-25T07:08:03.081Z,1009.24
2022-12-25T07:09:03.122Z,1009.17
2022-12-25T07:10:03.132Z,1009.07
2022-12-25T07:11:03.170Z,1009.05
2022-12-25T07:12:03.188Z,1009.01
2022-12-25T07:13:03.216Z,1009.00
2022-12-25T07:14:03.532Z,1009.02
2022-12-25T07:15:03.271Z,1009.01
2022-12-25T07:16:03.370Z,1008.97
2022-12-25T07:17:03.312Z,1008.93
2022-12-25T07:18:03.355Z,1009.00
2022-12-25T07:19:03.364Z,1009.06
2022-12-25T07:20:03.416Z,1009.22
2022-12-25T07:21:03.727Z,1009.23
2022-12-25T07:23:03.475Z,1009.18
2022-12-25T07:24:03.492Z,1009.18
2022-12-25T07:25:03.538Z,1009.19
2022-12-25T07:26:03.578Z,1009.17
2022-12-25T07:27:03.565Z,1009.10
2022-12-25T07:28:03.895Z,1009.06
2022-12-25T07:29:03.675Z,1009.05
2022-12-25T07:31:03.684Z,1009.03
2022-12-25T07:32:03.819Z,1009.07
2022-12-25T07:33:03.724Z,1009.04
2022-12-25T07:34:03.762Z,1009.01
2022-12-25T07:35:04.037Z,1009.03
2022-12-25T07:36:03.838Z,1009.03
2022-12-25T07:37:03.841Z,1009.02
2022-12-25T07:38:03.863Z,1009.02
2022-12-25T07:39:03.892Z,1008.99
2022-12-25T07:40:03.929Z,1008.99
2022-12-25T07:41:03.935Z,1009.00
2022-12-25T07:42:04.261Z,1009.01
2022-12-25T07:43:03.991Z,1008.98
2022-12-25T07:44:04.031Z,1009.01
2022-12-25T07:45:04.038Z,1008.99
2022-12-25T07:46:04.153Z,1008.93
2022-12-25T07:47:04.109Z,1008.94
2022-12-25T07:48:05.762Z,1008.99
2022-12-25T07:49:04.458Z,1009.00
2022-12-25T07:50:04.175Z,1009.03
2022-12-25T07:51:04.202Z,1009.02
2022-12-25T07:52:04.306Z,1009.01
2022-12-25T07:53:04.265Z,1009.00
2022-12-25T07:54:04.284Z,1009.02
2022-12-25T07:55:04.309Z,1009.02
2022-12-25T07:56:04.590Z,1008.98
2022-12-25T07:57:04.350Z,1009.04
2022-12-25T07:58:04.387Z,1009.01
2022-12-25T08:00:04.439Z,1008.92
2022-12-25T08:01:04.594Z,1008.90
2022-12-25T08:02:04.782Z,1008.86
2022-12-25T08:03:05.205Z,1008.89
2022-12-25T08:04:04.764Z,1008.87
2022-12-25T08:05:04.561Z,1008.82
2022-12-25T08:06:04.607Z,1008.89
2022-12-25T08:07:04.609Z,1008.88
2022-12-25T08:08:04.663Z,1008.93
2022-12-25T08:09:04.714Z,1008.94
2022-12-25T08:10:05.008Z,1008.89
2022-12-25T08:11:04.720Z,1008.86
2022-12-25T08:12:04.740Z,1008.88
2022-12-25T08:13:10.795Z,1008.86
2022-12-25T08:14:04.835Z,1008.78
2022-12-25T08:15:04.822Z,1008.79
2022-12-25T08:16:04.856Z,1008.78
2022-12-25T08:17:05.166Z,1008.82
2022-12-25T08:18:04.905Z,1008.84
2022-12-25T08:19:04.922Z,1008.84
2022-12-25T08:20:04.969Z,1008.85
2022-12-25T08:21:05.022Z,1008.84
2022-12-25T08:22:05.002Z,1008.88
2022-12-25T08:23:05.029Z,1008.87
2022-12-25T08:24:05.337Z,1008.87
2022-12-25T08:25:05.084Z,1008.83
2022-12-25T08:26:05.910Z,1008.81
2022-12-25T08:27:05.129Z,1008.76
2022-12-25T08:28:05.184Z,1008.63
2022-12-25T08:29:05.184Z,1008.52
2022-12-25T08:30:05.210Z,1008.41
2022-12-25T08:31:05.622Z,1008.43
2022-12-25T08:32:05.268Z,1008.45
2022-12-25T08:33:05.295Z,1008.42
2022-12-25T08:34:05.315Z,1008.42
2022-12-25T08:35:05.341Z,1008.47
2022-12-25T08:36:05.376Z,1008.49
2022-12-25T08:37:05.390Z,1008.60
2022-12-25T08:38:05.699Z,1008.62
2022-12-25T08:39:05.442Z,1008.72
2022-12-25T08:40:05.492Z,1008.76
2022-12-25T08:41:05.509Z,1008.81
2022-12-25T08:42:05.538Z,1008.89
2022-12-25T08:43:05.568Z,1008.91
2022-12-25T08:44:05.584Z,1008.97
2022-12-25T08:45:05.905Z,1008.96
2022-12-25T08:46:05.700Z,1008.96
2022-12-25T08:47:05.651Z,1008.98
2022-12-25T08:48:05.679Z,1009.03
2022-12-25T08:49:05.709Z,1009.09
2022-12-25T08:50:05.741Z,1009.16
2022-12-25T08:51:05.770Z,1009.18
2022-12-25T08:52:06.035Z,1009.15
2022-12-25T08:53:05.811Z,1009.08
2022-12-25T08:54:05.836Z,1009.02
2022-12-25T08:55:05.863Z,1008.95
2022-12-25T08:56:05.908Z,1008.91
2022-12-25T08:57:05.925Z,1008.86
2022-12-25T08:58:06.248Z,1008.86
2022-12-25T08:59:05.974Z,1008.81
2022-12-25T09:00:05.999Z,1008.76
2022-12-25T09:01:06.062Z,1008.78
2022-12-25T09:02:06.172Z,1008.75
2022-12-25T09:03:06.203Z,1008.76
2022-12-25T09:04:06.402Z,1008.74
2022-12-25T09:05:06.151Z,1008.74
2022-12-25T09:06:06.151Z,1008.74
2022-12-25T09:07:06.175Z,1008.67
2022-12-25T09:08:06.230Z,1008.62
2022-12-25T09:09:06.229Z,1008.62
2022-12-25T09:10:06.581Z,1008.64
2022-12-25T09:11:06.280Z,1008.66
2022-12-25T09:12:06.348Z,1008.77
2022-12-25T09:13:06.339Z,1008.84
2022-12-25T09:14:06.359Z,1008.84
2022-12-25T09:15:06.389Z,1008.88
2022-12-25T09:16:06.448Z,1008.87
2022-12-25T09:17:06.733Z,1008.84
2022-12-25T09:18:06.477Z,1008.84
2022-12-25T09:19:06.532Z,1008.86
2022-12-25T09:20:06.535Z,1008.86
2022-12-25T09:21:06.609Z,1008.93
2022-12-25T09:22:06.627Z,1009.00
2022-12-25T09:23:13.252Z,1008.99
2022-12-25T09:24:06.926Z,1008.95
2022-12-25T09:25:06.647Z,1008.99
2022-12-25T09:26:06.677Z,1009.01
2022-12-25T09:27:06.696Z,1009.02
2022-12-25T09:28:06.745Z,1009.06
2022-12-25T09:29:06.744Z,1009.05
2022-12-25T09:30:06.786Z,1009.08
2022-12-25T09:31:07.086Z,1009.08
2022-12-25T09:32:06.824Z,1009.13
2022-12-25T09:33:06.851Z,1009.19
2022-12-25T09:34:06.886Z,1009.19
2022-12-25T09:35:06.907Z,1009.19
2022-12-25T09:36:06.940Z,1009.17
2022-12-25T09:38:07.290Z,1009.22
2022-12-25T09:39:07.014Z,1009.25
2022-12-25T09:40:07.037Z,1009.31
2022-12-25T09:41:07.060Z,1009.30
2022-12-25T09:42:07.089Z,1009.37
2022-12-25T09:43:07.119Z,1009.43
2022-12-25T09:45:07.488Z,1009.48
2022-12-25T09:46:07.290Z,1009.45
2022-12-25T09:47:07.225Z,1009.48
2022-12-25T09:48:07.258Z,1009.47
2022-12-25T09:49:07.271Z,1009.50
2022-12-25T09:50:07.308Z,1009.51
2022-12-25T09:51:07.329Z,1009.47
2022-12-25T09:52:07.660Z,1009.44
2022-12-25T09:53:07.377Z,1009.35
2022-12-25T09:54:07.410Z,1009.30
2022-12-25T09:55:07.431Z,1009.30
2022-12-25T09:56:07.454Z,1009.28
2022-12-25T09:57:07.485Z,1009.22
2022-12-25T09:58:07.534Z,1009.26
2022-12-25T09:59:07.835Z,1009.21
2022-12-25T10:00:07.559Z,1009.16
2022-12-25T10:01:07.643Z,1009.16
2022-12-25T10:02:07.781Z,1009.12
2022-12-25T10:03:07.857Z,1009.11
2022-12-25T10:04:07.690Z,1009.14
2022-12-25T10:05:07.714Z,1009.16
2022-12-25T10:06:08.063Z,1009.13
2022-12-25T10:07:07.955Z,1009.14
2022-12-25T10:08:07.773Z,1009.10
2022-12-25T10:09:07.795Z,1009.11
2022-12-25T10:10:07.830Z,1009.11
2022-12-25T10:11:07.849Z,1009.13
2022-12-25T10:12:07.889Z,1009.09
2022-12-25T10:13:08.201Z,1009.06
2022-12-25T10:14:07.946Z,1009.02
2022-12-25T10:15:07.976Z,1009.02
2022-12-25T10:16:08.049Z,1008.96
2022-12-25T10:17:08.029Z,1008.98
2022-12-25T10:18:08.388Z,1008.90
2022-12-25T10:19:08.067Z,1008.90
2022-12-25T10:21:12.927Z,1008.78
2022-12-25T10:22:08.151Z,1008.73
2022-12-25T10:23:08.172Z,1008.73
2022-12-25T10:24:08.240Z,1008.71
2022-12-25T10:25:08.221Z,1008.73
2022-12-25T10:26:08.239Z,1008.76
2022-12-25T10:27:08.268Z,1008.72
2022-12-25T10:28:08.566Z,1008.72
2022-12-25T10:29:08.333Z,1008.75
2022-12-25T10:30:08.340Z,1008.73
2022-12-25T10:31:08.385Z,1008.65
2022-12-25T10:32:08.394Z,1008.57
2022-12-25T10:33:13.568Z,1008.52
2022-12-25T10:34:08.447Z,1008.47
2022-12-25T10:35:08.777Z,1008.48
2022-12-25T10:36:08.493Z,1008.51
2022-12-25T10:37:08.541Z,1008.48
2022-12-25T10:38:08.551Z,1008.48
2022-12-25T10:39:08.581Z,1008.43
2022-12-25T10:40:08.603Z,1008.35
2022-12-25T10:41:08.638Z,1008.34
2022-12-25T10:42:08.998Z,1008.40
2022-12-25T10:43:08.683Z,1008.41
2022-12-25T10:44:08.713Z,1008.39
2022-12-25T10:45:08.747Z,1008.39
2022-12-25T10:46:08.835Z,1008.43
2022-12-25T10:47:08.790Z,1008.43
2022-12-25T10:48:08.831Z,1008.46
2022-12-25T10:49:09.115Z,1008.50
2022-12-25T10:50:08.864Z,1008.49
2022-12-25T10:51:08.897Z,1008.50
2022-12-25T10:52:08.926Z,1008.51
2022-12-25T10:53:08.948Z,1008.51
2022-12-25T10:54:08.976Z,1008.53
2022-12-25T10:55:09.001Z,1008.49
2022-12-25T10:56:09.324Z,1008.54
2022-12-25T10:57:09.058Z,1008.48
2022-12-25T10:58:09.072Z,1008.51
2022-12-25T10:59:09.114Z,1008.41
2022-12-25T11:00:09.184Z,1008.38
2022-12-25T11:01:09.157Z,1008.36
2022-12-25T11:02:09.320Z,1008.34
2022-12-25T11:03:09.618Z,1008.31
2022-12-25T11:04:09.371Z,1008.23
2022-12-25T11:05:09.285Z,1008.20
2022-12-25T11:06:09.290Z,1008.13
2022-12-25T11:07:09.334Z,1008.02
2022-12-25T11:08:09.336Z,1007.97
2022-12-25T11:09:09.374Z,1007.92
2022-12-25T11:10:09.690Z,1007.88
2022-12-25T11:11:09.427Z,1007.76
2022-12-25T11:12:09.447Z,1007.78
2022-12-25T11:13:09.471Z,1007.74
2022-12-25T11:14:09.500Z,1007.71
2022-12-25T11:15:09.548Z,1007.58
2022-12-25T11:16:09.694Z,1007.51
2022-12-25T11:17:09.889Z,1007.43
2022-12-25T11:19:09.631Z,1007.37
2022-12-25T11:20:09.659Z,1007.37
2022-12-25T11:21:09.705Z,1007.38
2022-12-25T11:22:09.712Z,1007.40
2022-12-25T11:23:09.990Z,1007.37
2022-12-25T11:24:09.763Z,1007.34
2022-12-25T11:25:09.787Z,1007.30
2022-12-25T11:26:09.810Z,1007.33
2022-12-25T11:27:09.833Z,1007.32
2022-12-25T11:28:09.860Z,1007.30
2022-12-25T11:29:10.162Z,1007.27
2022-12-25T11:30:15.774Z,1007.19
2022-12-25T11:31:10.033Z,1007.18
2022-12-25T11:32:09.969Z,1007.17
2022-12-25T11:33:09.991Z,1007.14
2022-12-25T11:34:10.020Z,1007.20
2022-12-25T11:35:10.376Z,1007.16
2022-12-25T11:36:10.077Z,1007.11
2022-12-25T11:37:10.134Z,1007.05
2022-12-25T11:38:10.132Z,1007.01
2022-12-25T11:39:10.150Z,1006.99
2022-12-25T11:41:10.205Z,1006.90
2022-12-25T11:42:10.557Z,1006.93
2022-12-25T11:43:10.260Z,1006.88
2022-12-25T11:44:10.280Z,1006.86
2022-12-25T11:45:10.314Z,1006.86
2022-12-25T11:46:10.378Z,1006.87
2022-12-25T11:47:10.384Z,1006.87
2022-12-25T11:48:10.416Z,1006.88
2022-12-25T11:49:10.725Z,1006.86
2022-12-25T11:50:10.453Z,1006.91
2022-12-25T11:51:10.473Z,1006.91
2022-12-25T11:52:10.525Z,1006.94
2022-12-25T11:53:10.539Z,1006.89
2022-12-25T11:54:10.561Z,1006.81
2022-12-25T11:55:10.581Z,1006.77
2022-12-25T11:56:10.851Z,1006.74
2022-12-25T11:57:10.621Z,1006.72
2022-12-25T11:58:10.659Z,1006.72
2022-12-25T11:59:16.402Z,1006.67
2022-12-25T12:00:10.752Z,1006.64
2022-12-25T12:01:10.725Z,1006.64
2022-12-25T12:02:10.843Z,1006.63
2022-12-25T12:03:11.209Z,1006.64
2022-12-25T12:05:10.833Z,1006.60
2022-12-25T12:06:10.867Z,1006.59
2022-12-25T12:07:10.892Z,1006.63
2022-12-25T12:08:10.930Z,1006.65
2022-12-25T12:09:11.022Z,1006.66
2022-12-25T12:10:11.272Z,1006.67
2022-12-25T12:11:10.995Z,1006.69
2022-12-25T12:12:11.016Z,1006.66
2022-12-25T12:13:11.062Z,1006.65
2022-12-25T12:14:11.077Z,1006.66
2022-12-25T12:15:11.098Z,1006.60
2022-12-25T12:16:11.191Z,1006.58
2022-12-25T12:17:11.455Z,1006.58
2022-12-25T12:18:11.231Z,1006.56
2022-12-25T12:19:11.208Z,1006.52
2022-12-25T12:20:11.230Z,1006.48
2022-12-25T12:21:11.270Z,1006.48
2022-12-25T12:22:11.304Z,1006.49
2022-12-25T12:23:11.307Z,1006.47
2022-12-25T12:24:11.637Z,1006.44
2022-12-25T12:25:11.390Z,1006.43